createdAt,value
2018-08-11T00:00:50.860Z,52.51
2018-08-11T00:03:19.515Z,52.31
2018-08-11T00:05:48.396Z,52.61
2018-08-11T00:08:17.107Z,52.45
2018-08-11T00:10:45.893Z,52.05
2018-08-11T00:13:14.655Z,52.45
2018-08-11T00:15:43.323Z,52.88
2018-08-11T00:18:12.024Z,52.71
2018-08-11T00:20:40.809Z,53.10
2018-08-11T00:23:09.452Z,53.20
2018-08-11T00:25:38.172Z,53.13
2018-08-11T00:28:07.296Z,53.03
2018-08-11T00:30:35.993Z,52.85
2018-08-11T00:33:05.063Z,52.65
2018-08-11T00:35:33.743Z,52.16
2018-08-11T00:38:02.443Z,52.19
2018-08-11T00:40:31.071Z,52.07
2018-08-11T00:42:59.964Z,52.04
2018-08-11T00:45:28.547Z,52.02
2018-08-11T00:47:57.580Z,52.07
2018-08-11T00:50:30.632Z,51.91
2018-08-11T00:52:59.225Z,52.11
2018-08-11T00:55:27.912Z,52.06
2018-08-11T00:57:56.745Z,52.17
2018-08-11T01:00:25.512Z,52.87
2018-08-11T01:02:54.230Z,52.11
2018-08-11T01:05:22.903Z,52.14
2018-08-11T01:07:52.279Z,52.31
2018-08-11T01:10:20.947Z,52.03
2018-08-11T01:12:50.131Z,51.91
2018-08-11T01:15:20.524Z,51.51
2018-08-11T01:17:50.117Z,51.87
2018-08-11T01:20:19.207Z,51.17
2018-08-11T01:22:48.489Z,50.92
2018-08-11T01:25:17.543Z,51.64
2018-08-11T01:27:46.208Z,51.29
2018-08-11T01:30:16.463Z,50.88
2018-08-11T01:32:45.198Z,50.72
2018-08-11T01:35:14.028Z,50.88
2018-08-11T01:37:43.570Z,50.96
2018-08-11T01:40:13.401Z,51.41
2018-08-11T01:42:43.399Z,50.96
2018-08-11T01:45:12.723Z,51.41
2018-08-11T01:47:41.900Z,50.57
2018-08-11T01:50:11.797Z,51.15
2018-08-11T01:52:42.044Z,50.74
2018-08-11T01:55:12.267Z,51.06
2018-08-11T01:57:41.297Z,51.13
2018-08-11T02:00:11.888Z,51.00
2018-08-11T02:02:41.079Z,50.96
2018-08-11T02:05:10.899Z,50.70
2018-08-11T02:07:40.895Z,50.93
2018-08-11T02:10:13.988Z,50.88
2018-08-11T02:12:42.663Z,50.38
2018-08-11T02:15:12.807Z,50.83
2018-08-11T02:17:41.503Z,50.58
2018-08-11T02:20:13.023Z,50.46
2018-08-11T02:22:42.696Z,50.31
2018-08-11T02:25:11.434Z,49.80
2018-08-11T02:27:40.422Z,49.49
2018-08-11T02:30:11.283Z,49.08
2018-08-11T02:32:40.360Z,49.56
2018-08-11T02:35:09.863Z,49.91
2018-08-11T02:37:39.095Z,49.76
2018-08-11T02:40:09.491Z,50.56
2018-08-11T02:42:38.244Z,50.69
2018-08-11T02:45:07.656Z,51.03
2018-08-11T02:47:36.254Z,51.45
2018-08-11T02:50:06.705Z,51.32
2018-08-11T02:52:35.364Z,51.68
2018-08-11T02:55:04.160Z,51.74
2018-08-11T02:57:32.980Z,52.07
2018-08-11T03:00:01.516Z,52.44
2018-08-11T03:02:30.124Z,52.45
2018-08-11T03:04:58.947Z,52.80
2018-08-11T03:07:27.571Z,53.22
2018-08-11T03:09:56.166Z,53.22
2018-08-11T03:12:24.932Z,53.33
2018-08-11T03:14:53.635Z,53.07
2018-08-11T03:17:22.216Z,53.30
2018-08-11T03:19:50.965Z,53.02
2018-08-11T03:22:19.615Z,52.70
2018-08-11T03:24:48.275Z,52.69
2018-08-11T03:27:17.307Z,52.90
2018-08-11T03:29:46.387Z,53.10
2018-08-11T03:32:15.156Z,53.37
2018-08-11T03:34:44.188Z,53.26
2018-08-11T03:37:12.840Z,53.33
2018-08-11T03:39:41.411Z,53.22
2018-08-11T03:42:10.270Z,54.04
2018-08-11T03:44:38.831Z,54.66
2018-08-11T03:47:07.531Z,54.69
2018-08-11T03:49:36.622Z,54.83
2018-08-11T03:52:05.406Z,54.53
2018-08-11T03:54:34.039Z,54.51
2018-08-11T03:57:02.998Z,53.66
2018-08-11T03:59:31.607Z,53.86
2018-08-11T04:02:00.188Z,54.25
2018-08-11T04:04:29.140Z,54.41
2018-08-11T04:06:57.837Z,54.50
2018-08-11T04:09:26.659Z,53.94
2018-08-11T04:11:55.275Z,54.34
2018-08-11T04:14:23.847Z,54.51
2018-08-11T04:16:52.788Z,54.57
2018-08-11T04:19:21.500Z,55.16
2018-08-11T04:21:50.084Z,54.86
2018-08-11T04:24:18.671Z,54.70
2018-08-11T04:26:47.619Z,54.00
2018-08-11T04:29:16.157Z,54.46
2018-08-11T04:31:44.720Z,54.02
2018-08-11T04:34:13.468Z,53.67
2018-08-11T04:36:42.108Z,52.83
2018-08-11T04:39:10.635Z,52.63
2018-08-11T04:41:39.931Z,52.28
2018-08-11T04:44:08.571Z,51.55
2018-08-11T04:46:37.152Z,52.12
2018-08-11T04:49:05.827Z,51.57
2018-08-11T04:51:34.416Z,51.54
2018-08-11T04:54:03.103Z,50.99
2018-08-11T04:56:31.955Z,51.04
2018-08-11T04:59:00.584Z,50.00
2018-08-11T05:01:29.173Z,49.67
2018-08-11T05:03:58.004Z,49.40
2018-08-11T05:06:26.699Z,49.36
2018-08-11T05:08:55.357Z,48.92
2018-08-11T05:11:24.071Z,48.65
2018-08-11T05:13:52.833Z,48.23
2018-08-11T05:16:21.375Z,48.11
2018-08-11T05:18:50.123Z,47.89
2018-08-11T05:21:18.788Z,47.56
2018-08-11T05:23:47.340Z,47.34
2018-08-11T05:26:15.974Z,47.19
2018-08-11T05:28:44.675Z,47.23
2018-08-11T05:31:13.288Z,47.41
2018-08-11T05:33:41.940Z,47.69
2018-08-11T05:36:10.560Z,47.33
2018-08-11T05:38:39.163Z,47.19
2018-08-11T05:41:07.982Z,47.38
2018-08-11T05:43:36.682Z,46.46
2018-08-11T05:46:05.447Z,46.63
2018-08-11T05:48:34.159Z,46.15
2018-08-11T05:51:02.786Z,46.69
2018-08-11T05:53:31.360Z,46.27
2018-08-11T05:56:00.287Z,45.79
2018-08-11T05:58:29.055Z,46.07
2018-08-11T06:00:57.632Z,46.19
2018-08-11T06:03:26.435Z,45.30
2018-08-11T06:05:55.064Z,44.74
2018-08-11T06:08:23.717Z,45.24
2018-08-11T06:10:52.321Z,44.94
2018-08-11T06:13:20.975Z,44.67
2018-08-11T06:15:49.699Z,44.65
2018-08-11T06:18:18.346Z,44.42
2018-08-11T06:20:47.007Z,45.15
2018-08-11T06:23:15.652Z,45.43
2018-08-11T06:25:44.315Z,45.65
2018-08-11T06:28:12.967Z,44.32
2018-08-11T06:30:41.663Z,43.80
2018-08-11T06:33:10.505Z,41.73
2018-08-11T06:35:41.226Z,41.52
2018-08-11T06:38:10.262Z,40.63
2018-08-11T06:40:42.667Z,41.51
2018-08-11T06:43:15.241Z,41.15
2018-08-11T06:45:45.687Z,40.71
2018-08-11T06:48:18.336Z,40.65
2018-08-11T06:50:48.389Z,40.52
2018-08-11T06:53:21.151Z,39.37
2018-08-11T06:55:52.143Z,40.10
2018-08-11T06:58:24.261Z,39.62
2018-08-11T07:00:56.865Z,38.78
2018-08-11T07:03:30.231Z,36.72
2018-08-11T07:06:00.254Z,36.81
2018-08-11T07:08:33.168Z,36.14
2018-08-11T07:11:05.773Z,35.52
2018-08-11T07:13:37.298Z,33.42
2018-08-11T07:16:08.449Z,33.19
2018-08-11T07:18:42.360Z,32.64
2018-08-11T07:21:14.525Z,30.89
2018-08-11T07:23:43.424Z,31.35
2018-08-11T07:26:15.680Z,31.43
2018-08-11T07:28:48.695Z,30.17
2018-08-11T07:31:19.956Z,30.56
2018-08-11T07:33:50.804Z,30.91
2018-08-11T07:36:23.157Z,30.75
2018-08-11T07:38:54.860Z,31.87
2018-08-11T07:41:24.876Z,31.78
2018-08-11T07:43:57.339Z,30.40
2018-08-11T07:46:28.882Z,31.51
2018-08-11T07:49:02.324Z,30.59
2018-08-11T07:51:34.083Z,30.20
2018-08-11T07:54:04.716Z,30.16
2018-08-11T07:56:35.734Z,29.90
2018-08-11T07:59:08.187Z,30.41
2018-08-11T08:01:40.029Z,29.59
2018-08-11T08:04:12.154Z,29.54
2018-08-11T08:06:40.892Z,29.50
2018-08-11T08:09:15.675Z,29.74
2018-08-11T08:11:47.544Z,28.92
2018-08-11T08:14:18.234Z,27.47
2018-08-11T08:16:48.597Z,28.30
2018-08-11T08:19:20.380Z,28.16
2018-08-11T08:21:50.212Z,27.40
2018-08-11T08:24:22.830Z,28.62
2018-08-11T08:26:55.707Z,26.36
2018-08-11T08:29:27.700Z,25.33
2018-08-11T08:32:00.465Z,25.64
2018-08-11T08:34:32.148Z,24.72
2018-08-11T08:37:05.359Z,25.60
2018-08-11T08:39:38.056Z,24.22
2018-08-11T08:42:08.461Z,24.67
2018-08-11T08:44:41.836Z,25.14
2018-08-11T08:47:15.274Z,24.48
2018-08-11T08:49:44.286Z,21.75
2018-08-11T08:52:17.409Z,20.61
2018-08-11T08:54:49.354Z,20.95
2018-08-11T08:57:20.046Z,19.83
2018-08-11T08:59:52.264Z,21.62
2018-08-11T09:02:24.949Z,20.41
2018-08-11T09:04:56.062Z,21.17
2018-08-11T09:07:29.271Z,21.16
2018-08-11T09:10:02.513Z,20.35
2018-08-11T09:12:34.124Z,20.68
2018-08-11T09:15:06.873Z,21.00
2018-08-11T09:17:38.428Z,21.31
2018-08-11T09:20:12.314Z,19.52
2018-08-11T09:22:48.353Z,18.09
2018-08-11T09:25:21.010Z,18.90
2018-08-11T09:27:55.054Z,19.18
2018-08-11T09:30:31.493Z,20.20
2018-08-11T09:33:07.187Z,20.50
2018-08-11T09:35:40.895Z,20.77
2018-08-11T09:38:21.685Z,20.38
2018-08-11T09:40:51.432Z,19.78
2018-08-11T09:43:20.731Z,19.15
2018-08-11T09:45:50.358Z,22.33
2018-08-11T09:48:19.091Z,23.02
2018-08-11T09:50:48.167Z,20.75
2018-08-11T09:53:18.457Z,19.02
2018-08-11T09:55:47.168Z,21.08
2018-08-11T09:58:16.096Z,20.75
2018-08-11T10:00:53.912Z,21.08
2018-08-11T10:03:22.971Z,21.60
2018-08-11T10:05:51.684Z,20.12
2018-08-11T10:08:22.323Z,22.73
2018-08-11T10:10:50.955Z,22.73
2018-08-11T10:13:19.691Z,22.68
2018-08-11T10:15:48.879Z,18.69
2018-08-11T10:18:20.687Z,17.21
2018-08-11T10:20:49.583Z,16.53
2018-08-11T10:23:18.147Z,16.54
2018-08-11T10:25:46.851Z,15.63
2018-08-11T10:28:15.995Z,16.13
2018-08-11T10:30:44.652Z,15.78
2018-08-11T10:33:13.309Z,15.19
2018-08-11T10:35:42.048Z,12.95
2018-08-11T10:38:11.258Z,13.30
2018-08-11T10:40:39.952Z,13.22
2018-08-11T10:43:09.723Z,12.26
2018-08-11T10:45:38.513Z,13.36
2018-08-11T10:48:07.244Z,11.70
2018-08-11T10:50:35.867Z,11.76
2018-08-11T10:53:04.550Z,11.22
2018-08-11T10:55:33.220Z,12.20
2018-08-11T10:58:02.004Z,13.47
2018-08-11T11:00:31.028Z,14.29
2018-08-11T11:03:03.323Z,16.32
2018-08-11T11:05:31.855Z,15.55
2018-08-11T11:08:00.507Z,14.53
2018-08-11T11:10:29.179Z,17.17
2018-08-11T11:12:57.852Z,19.54
2018-08-11T11:15:26.504Z,19.17
2018-08-11T11:17:55.099Z,18.73
2018-08-11T11:20:23.938Z,20.58
2018-08-11T11:22:52.569Z,22.78
2018-08-11T11:25:21.241Z,20.25
2018-08-11T11:27:49.799Z,18.41
2018-08-11T11:30:18.438Z,18.26
2018-08-11T11:32:47.088Z,18.09
2018-08-11T11:35:15.744Z,18.63
2018-08-11T11:37:44.315Z,18.74
2018-08-11T11:40:13.304Z,17.76
2018-08-11T11:42:42.014Z,18.56
2018-08-11T11:45:10.683Z,14.28
2018-08-11T11:47:39.559Z,13.89
2018-08-11T11:50:08.395Z,11.31
2018-08-11T11:52:37.119Z,13.23
2018-08-11T11:55:06.239Z,16.66
2018-08-11T11:57:34.862Z,17.94
2018-08-11T12:00:03.605Z,18.55
2018-08-11T12:02:32.172Z,18.59
2018-08-11T12:05:00.884Z,14.80
2018-08-11T12:07:29.708Z,12.00
2018-08-11T12:09:58.656Z,12.82
2018-08-11T12:12:28.042Z,14.88
2018-08-11T12:14:56.708Z,15.98
2018-08-11T12:17:25.414Z,18.25
2018-08-11T12:19:54.131Z,16.49
2018-08-11T12:22:22.868Z,17.17
2018-08-11T12:24:52.785Z,18.59
2018-08-11T12:27:21.366Z,15.92
2018-08-11T12:29:50.046Z,13.67
2018-08-11T12:32:18.988Z,12.68
2018-08-11T12:34:47.684Z,14.81
2018-08-11T12:37:16.327Z,15.47
2018-08-11T12:39:45.084Z,15.87
2018-08-11T12:42:13.667Z,12.32
2018-08-11T12:44:42.483Z,14.26
2018-08-11T12:47:11.751Z,12.36
2018-08-11T12:49:40.425Z,12.52
2018-08-11T12:52:09.243Z,12.06
2018-08-11T12:54:37.870Z,13.01
2018-08-11T12:57:06.532Z,13.60
2018-08-11T12:59:35.454Z,13.17
2018-08-11T13:02:04.103Z,12.35
2018-08-11T13:04:32.832Z,12.27
2018-08-11T13:07:01.679Z,10.18
2018-08-11T13:09:30.264Z,11.77
2018-08-11T13:11:58.896Z,13.42
2018-08-11T13:14:27.571Z,12.62
2018-08-11T13:16:56.449Z,11.44
2018-08-11T13:19:25.726Z,11.64
2018-08-11T13:21:54.457Z,11.40
2018-08-11T13:24:23.529Z,13.47
2018-08-11T13:26:52.168Z,12.25
2018-08-11T13:29:20.900Z,12.34
2018-08-11T13:31:49.796Z,12.21
2018-08-11T13:34:18.489Z,11.59
2018-08-11T13:36:48.444Z,11.28
2018-08-11T13:39:17.287Z,12.94
2018-08-11T13:41:47.707Z,13.55
2018-08-11T13:44:17.530Z,13.68
2018-08-11T13:46:46.391Z,14.02
2018-08-11T13:49:15.298Z,15.64
2018-08-11T13:51:44.115Z,14.74
2018-08-11T13:54:12.933Z,14.61
2018-08-11T13:56:41.904Z,14.33
2018-08-11T13:59:10.772Z,13.74
2018-08-11T14:01:39.475Z,12.30
2018-08-11T14:04:08.673Z,12.85
2018-08-11T14:06:37.531Z,13.79
2018-08-11T14:09:07.903Z,12.52
2018-08-11T14:11:36.663Z,14.15
2018-08-11T14:14:05.624Z,14.65
2018-08-11T14:16:34.292Z,15.10
2018-08-11T14:19:03.004Z,12.41
2018-08-11T14:21:31.968Z,12.40
2018-08-11T14:24:00.551Z,14.97
2018-08-11T14:26:29.488Z,14.69
2018-08-11T14:28:58.128Z,14.41
2018-08-11T14:31:26.699Z,14.37
2018-08-11T14:33:55.268Z,14.51
2018-08-11T14:36:23.972Z,13.69
2018-08-11T14:38:52.720Z,14.09
2018-08-11T14:41:21.583Z,14.91
2018-08-11T14:43:50.144Z,17.36
2018-08-11T14:46:18.743Z,16.07
2018-08-11T14:48:47.639Z,14.88
2018-08-11T14:51:16.356Z,15.13
2018-08-11T14:53:44.995Z,15.04
2018-08-11T14:56:13.812Z,15.23
2018-08-11T14:58:42.522Z,15.77
2018-08-11T15:01:11.163Z,14.12
2018-08-11T15:03:40.104Z,13.90
2018-08-11T15:06:08.655Z,15.08
2018-08-11T15:08:37.412Z,14.41
2018-08-11T15:11:06.033Z,13.37
2018-08-11T15:13:34.684Z,14.54
2018-08-11T15:16:03.401Z,14.74
2018-08-11T15:18:32.192Z,17.21
2018-08-11T15:21:00.856Z,16.66
2018-08-11T15:23:29.589Z,16.24
2018-08-11T15:25:58.332Z,18.13
2018-08-11T15:28:27.012Z,19.58
2018-08-11T15:30:55.895Z,20.29
2018-08-11T15:33:24.749Z,20.40
2018-08-11T15:35:53.423Z,20.42
2018-08-11T15:38:22.117Z,20.20
2018-08-11T15:40:50.975Z,20.03
2018-08-11T15:43:19.587Z,20.79
2018-08-11T15:45:48.323Z,21.37
2018-08-11T15:48:16.927Z,21.49
2018-08-11T15:50:45.775Z,21.26
2018-08-11T15:53:14.542Z,21.87
2018-08-11T15:55:43.408Z,21.33
2018-08-11T15:58:12.110Z,22.62
2018-08-11T16:00:40.784Z,23.11
2018-08-11T16:03:09.598Z,22.55
2018-08-11T16:05:38.210Z,22.48
2018-08-11T16:08:06.975Z,22.41
2018-08-11T16:10:35.831Z,22.11
2018-08-11T16:13:04.508Z,22.85
2018-08-11T16:15:33.386Z,22.60
2018-08-11T16:18:02.576Z,22.97
2018-08-11T16:20:31.171Z,22.54
2018-08-11T16:22:59.867Z,22.91
2018-08-11T16:25:28.654Z,22.97
2018-08-11T16:27:57.567Z,23.84
2018-08-11T16:30:26.211Z,23.63
2018-08-11T16:32:55.120Z,24.68
2018-08-11T16:35:23.655Z,23.91
2018-08-11T16:37:52.252Z,24.80
2018-08-11T16:40:21.132Z,24.68
2018-08-11T16:42:49.812Z,25.67
2018-08-11T16:45:18.556Z,24.61
2018-08-11T16:47:47.360Z,25.13
2018-08-11T16:50:15.895Z,24.71
2018-08-11T16:52:44.565Z,25.07
2018-08-11T16:55:13.499Z,25.74
2018-08-11T16:57:42.417Z,25.70
2018-08-11T17:00:12.926Z,26.15
2018-08-11T17:02:42.103Z,26.35
2018-08-11T17:05:10.779Z,26.77
2018-08-11T17:07:39.508Z,26.17
2018-08-11T17:10:09.374Z,26.53
2018-08-11T17:12:38.498Z,27.09
2018-08-11T17:15:07.516Z,26.87
2018-08-11T17:17:36.164Z,27.15
2018-08-11T17:20:05.588Z,26.67
2018-08-11T17:22:34.322Z,27.03
2018-08-11T17:25:03.986Z,27.42
2018-08-11T17:27:33.199Z,26.88
2018-08-11T17:30:01.822Z,27.12
2018-08-11T17:32:30.748Z,27.96
2018-08-11T17:34:59.652Z,28.02
2018-08-11T17:37:28.296Z,28.17
2018-08-11T17:39:57.016Z,27.88
2018-08-11T17:42:25.916Z,27.80
2018-08-11T17:44:54.651Z,27.54
2018-08-11T17:47:23.573Z,28.17
2018-08-11T17:49:52.561Z,28.57
2018-08-11T17:52:21.128Z,28.15
2018-08-11T17:54:50.050Z,29.27
2018-08-11T17:57:19.046Z,29.31
2018-08-11T17:59:47.600Z,29.30
2018-08-11T18:02:16.356Z,29.22
2018-08-11T18:04:45.507Z,28.73
2018-08-11T18:07:14.527Z,29.41
2018-08-11T18:09:43.283Z,29.81
2018-08-11T18:12:12.123Z,29.48
2018-08-11T18:14:40.771Z,30.40
2018-08-11T18:17:09.403Z,30.00
2018-08-11T18:19:40.383Z,30.41
2018-08-11T18:22:09.051Z,30.84
2018-08-11T18:24:37.785Z,30.09
2018-08-11T18:27:06.760Z,31.12
2018-08-11T18:29:35.421Z,31.80
2018-08-11T18:32:04.140Z,31.36
2018-08-11T18:34:33.076Z,30.39
2018-08-11T18:37:01.777Z,31.09
2018-08-11T18:39:30.367Z,31.70
2018-08-11T18:41:59.080Z,32.09
2018-08-11T18:44:27.740Z,32.15
2018-08-11T18:46:56.300Z,32.16
2018-08-11T18:49:24.979Z,31.84
2018-08-11T18:51:53.733Z,31.78
2018-08-11T18:54:22.379Z,32.22
2018-08-11T18:56:51.061Z,33.22
2018-08-11T18:59:19.624Z,33.12
2018-08-11T19:01:49.042Z,33.03
2018-08-11T19:04:18.150Z,32.84
2018-08-11T19:06:47.089Z,33.58
2018-08-11T19:09:15.776Z,34.45
2018-08-11T19:11:44.539Z,33.59
2018-08-11T19:14:13.374Z,33.96
2018-08-11T19:16:42.244Z,34.42
2018-08-11T19:19:11.095Z,35.01
2018-08-11T19:21:39.812Z,35.81
2018-08-11T19:24:08.644Z,35.84
2018-08-11T19:26:37.505Z,37.07
2018-08-11T19:29:06.545Z,36.04
2018-08-11T19:31:35.324Z,35.38
2018-08-11T19:34:04.448Z,36.67
2018-08-11T19:36:33.128Z,36.57
2018-08-11T19:39:01.960Z,37.73
2018-08-11T19:41:30.695Z,36.61
2018-08-11T19:43:59.455Z,38.71
2018-08-11T19:46:28.347Z,38.46
2018-08-11T19:48:57.281Z,37.93
2018-08-11T19:51:25.883Z,39.20
2018-08-11T19:53:54.592Z,37.40
2018-08-11T19:56:23.378Z,37.66
2018-08-11T19:58:51.995Z,38.48
2018-08-11T20:01:20.728Z,38.55
2018-08-11T20:03:49.476Z,39.35
2018-08-11T20:06:18.319Z,40.36
2018-08-11T20:08:47.113Z,39.53
2018-08-11T20:11:16.322Z,38.75
2018-08-11T20:13:45.116Z,39.91
2018-08-11T20:16:13.715Z,39.59
2018-08-11T20:18:42.537Z,40.45
2018-08-11T20:21:11.403Z,40.46
2018-08-11T20:23:40.336Z,41.16
2018-08-11T20:26:09.000Z,41.90
2018-08-11T20:28:37.653Z,40.17
2018-08-11T20:31:06.338Z,40.83
2018-08-11T20:33:35.183Z,40.87
2018-08-11T20:36:03.984Z,41.23
2018-08-11T20:38:33.008Z,41.94
2018-08-11T20:41:02.484Z,41.60
2018-08-11T20:43:31.252Z,42.49
2018-08-11T20:46:00.102Z,41.77
2018-08-11T20:48:29.079Z,42.30
2018-08-11T20:50:57.822Z,41.92
2018-08-11T20:53:26.612Z,41.61
2018-08-11T20:55:55.391Z,42.04
2018-08-11T20:58:24.079Z,41.94
2018-08-11T21:00:52.736Z,42.53
2018-08-11T21:03:21.443Z,42.32
2018-08-11T21:05:51.376Z,42.57
2018-08-11T21:08:21.001Z,42.40
2018-08-11T21:10:51.041Z,42.24
2018-08-11T21:13:20.311Z,41.92
2018-08-11T21:15:49.056Z,42.61
2018-08-11T21:18:17.739Z,41.87
2018-08-11T21:20:46.491Z,42.87
2018-08-11T21:23:15.237Z,42.57
2018-08-11T21:25:43.925Z,43.38
2018-08-11T21:28:12.556Z,44.11
2018-08-11T21:30:41.791Z,44.29
2018-08-11T21:33:10.456Z,44.62
2018-08-11T21:35:39.226Z,44.26
2018-08-11T21:38:08.356Z,44.86
2018-08-11T21:40:42.160Z,44.66
2018-08-11T21:43:11.059Z,45.35
2018-08-11T21:45:39.889Z,46.08
2018-08-11T21:48:08.727Z,46.10
2018-08-11T21:50:37.632Z,46.14
2018-08-11T21:53:06.449Z,46.48
2018-08-11T21:55:35.387Z,46.51
2018-08-11T21:58:04.133Z,46.66
2018-08-11T22:00:36.576Z,46.69
2018-08-11T22:03:07.251Z,47.10
2018-08-11T22:05:36.359Z,47.58
2018-08-11T22:08:06.031Z,47.54
2018-08-11T22:10:35.688Z,47.78
2018-08-11T22:13:04.889Z,47.73
2018-08-11T22:15:35.080Z,47.80
2018-08-11T22:18:04.608Z,48.06
2018-08-11T22:20:34.713Z,48.16
2018-08-11T22:23:04.590Z,48.55
2018-08-11T22:25:33.211Z,48.64
2018-08-11T22:28:02.997Z,48.83
2018-08-11T22:30:32.644Z,48.82
2018-08-11T22:33:02.151Z,49.06
2018-08-11T22:35:32.074Z,49.08
2018-08-11T22:38:01.828Z,49.03
2018-08-11T22:40:30.712Z,48.87
2018-08-11T22:43:00.507Z,49.67
2018-08-11T22:45:29.321Z,49.42
2018-08-11T22:47:58.308Z,49.25
2018-08-11T22:50:27.302Z,48.88
2018-08-11T22:52:56.179Z,48.72
2018-08-11T22:55:25.359Z,48.75
2018-08-11T22:57:54.280Z,48.90
2018-08-11T23:00:23.264Z,49.21
2018-08-11T23:02:52.065Z,48.75
2018-08-11T23:05:21.859Z,48.67
2018-08-11T23:07:50.501Z,48.77
2018-08-11T23:10:19.623Z,49.11
2018-08-11T23:12:48.616Z,49.12
2018-08-11T23:15:20.268Z,49.66
2018-08-11T23:17:50.225Z,49.43
2018-08-11T23:20:19.401Z,50.66
2018-08-11T23:22:48.212Z,50.76
2018-08-11T23:25:17.917Z,51.63
2018-08-11T23:27:47.199Z,51.63
2018-08-11T23:30:18.221Z,51.94
2018-08-11T23:32:47.688Z,52.13
2018-08-11T23:35:16.762Z,52.39
2018-08-11T23:37:46.160Z,51.78
2018-08-11T23:40:15.772Z,52.11
2018-08-11T23:42:45.184Z,52.66
2018-08-11T23:45:16.017Z,53.04
2018-08-11T23:47:44.779Z,52.89
2018-08-11T23:50:14.483Z,53.20
2018-08-11T23:52:44.100Z,53.41
2018-08-11T23:55:14.211Z,53.43
2018-08-11T23:57:42.967Z,53.96
